sensor_id;sensor_type;location;lat;lon;timestamp;temperature;humidity
21592;DHT22;10958;50.892;3.992;2023-04-15T00:00:10;12.00;99.90
21592;DHT22;10958;50.892;3.992;2023-04-15T00:02:36;11.70;99.90
21592;DHT22;10958;50.892;3.992;2023-04-15T00:05:03;11.90;99.90
21592;DHT22;10958;50.892;3.992;2023-04-15T00:08:59;12.10;99.90
21592;DHT22;10958;50.892;3.992;2023-04-15T00:11:25;11.90;99.90
21592;DHT22;10958;50.892;3.992;2023-04-15T00:13:50;11.50;99.90
21592;DHT22;10958;50.892;3.992;2023-04-15T00:16:16;11.60;99.90
21592;DHT22;10958;50.892;3.992;2023-04-15T00:18:42;11.80;99.90
21592;DHT22;10958;50.892;3.992;2023-04-15T00:21:07;11.60;99.90
21592;DHT22;10958;50.892;3.992;2023-04-15T00:23:34;11.40;99.90
21592;DHT22;10958;50.892;3.992;2023-04-15T00:26:01;11.60;99.90
21592;DHT22;10958;50.892;3.992;2023-04-15T00:28:27;11.90;99.90
21592;DHT22;10958;50.892;3.992;2023-04-15T00:30:52;12.00;99.90
21592;DHT22;10958;50.892;3.992;2023-04-15T00:33:18;11.70;99.90
21592;DHT22;10958;50.892;3.992;2023-04-15T00:35:44;11.70;99.90
21592;DHT22;10958;50.892;3.992;2023-04-15T00:38:09;12.00;99.90
21592;DHT22;10958;50.892;3.992;2023-04-15T00:40:36;12.20;99.90
21592;DHT22;10958;50.892;3.992;2023-04-15T00:43:02;12.20;99.90
21592;DHT22;10958;50.892;3.992;2023-04-15T00:45:28;12.00;99.90
21592;DHT22;10958;50.892;3.992;2023-04-15T00:47:55;12.00;99.90
21592;DHT22;10958;50.892;3.992;2023-04-15T00:50:21;12.20;99.90
21592;DHT22;10958;50.892;3.992;2023-04-15T00:52:49;12.20;99.90
21592;DHT22;10958;50.892;3.992;2023-04-15T00:55:16;11.70;99.90
21592;DHT22;10958;50.892;3.992;2023-04-15T00:57:41;11.40;99.90
21592;DHT22;10958;50.892;3.992;2023-04-15T01:00:07;11.30;99.90
21592;DHT22;10958;50.892;3.992;2023-04-15T01:02:34;11.10;99.90
21592;DHT22;10958;50.892;3.992;2023-04-15T01:05:03;10.90;99.90
21592;DHT22;10958;50.892;3.992;2023-04-15T01:07:32;10.80;99.90
21592;DHT22;10958;50.892;3.992;2023-04-15T01:09:57;10.90;99.90
21592;DHT22;10958;50.892;3.992;2023-04-15T01:12:25;11.00;99.90
21592;DHT22;10958;50.892;3.992;2023-04-15T01:14:52;11.10;99.90
21592;DHT22;10958;50.892;3.992;2023-04-15T01:17:18;11.30;99.90
21592;DHT22;10958;50.892;3.992;2023-04-15T01:19:44;11.30;99.90
21592;DHT22;10958;50.892;3.992;2023-04-15T01:22:10;11.40;99.90
21592;DHT22;10958;50.892;3.992;2023-04-15T01:24:37;11.40;99.90
21592;DHT22;10958;50.892;3.992;2023-04-15T01:27:04;11.20;99.90
21592;DHT22;10958;50.892;3.992;2023-04-15T01:29:31;10.90;99.90
21592;DHT22;10958;50.892;3.992;2023-04-15T01:31:58;10.70;99.90
21592;DHT22;10958;50.892;3.992;2023-04-15T01:34:24;10.70;99.90
21592;DHT22;10958;50.892;3.992;2023-04-15T01:36:50;10.90;99.90
21592;DHT22;10958;50.892;3.992;2023-04-15T01:39:16;11.30;99.90
21592;DHT22;10958;50.892;3.992;2023-04-15T01:41:42;11.40;99.90
21592;DHT22;10958;50.892;3.992;2023-04-15T01:44:08;11.00;99.90
21592;DHT22;10958;50.892;3.992;2023-04-15T01:46:34;11.00;99.90
21592;DHT22;10958;50.892;3.992;2023-04-15T01:49:00;11.10;99.90
21592;DHT22;10958;50.892;3.992;2023-04-15T01:51:26;11.40;99.90
21592;DHT22;10958;50.892;3.992;2023-04-15T01:53:52;11.60;99.90
21592;DHT22;10958;50.892;3.992;2023-04-15T01:56:21;11.80;99.90
21592;DHT22;10958;50.892;3.992;2023-04-15T01:58:48;11.70;99.90
21592;DHT22;10958;50.892;3.992;2023-04-15T02:01:14;11.80;99.90
21592;DHT22;10958;50.892;3.992;2023-04-15T02:03:41;11.80;99.90
21592;DHT22;10958;50.892;3.992;2023-04-15T02:06:07;11.60;99.90
21592;DHT22;10958;50.892;3.992;2023-04-15T02:08:33;11.50;99.90
21592;DHT22;10958;50.892;3.992;2023-04-15T02:10:59;11.10;99.90
21592;DHT22;10958;50.892;3.992;2023-04-15T02:13:25;10.80;99.90
21592;DHT22;10958;50.892;3.992;2023-04-15T02:15:53;10.60;99.90
21592;DHT22;10958;50.892;3.992;2023-04-15T02:18:20;10.30;99.90
21592;DHT22;10958;50.892;3.992;2023-04-15T02:20:46;10.30;99.90
21592;DHT22;10958;50.892;3.992;2023-04-15T02:23:12;10.20;99.90
21592;DHT22;10958;50.892;3.992;2023-04-15T02:25:38;10.20;99.90
21592;DHT22;10958;50.892;3.992;2023-04-15T02:28:06;10.10;99.90
21592;DHT22;10958;50.892;3.992;2023-04-15T02:30:32;10.10;99.90
21592;DHT22;10958;50.892;3.992;2023-04-15T02:32:59;10.10;99.90
21592;DHT22;10958;50.892;3.992;2023-04-15T02:35:26;10.00;99.90
21592;DHT22;10958;50.892;3.992;2023-04-15T02:37:51;10.00;99.90
21592;DHT22;10958;50.892;3.992;2023-04-15T02:40:17;10.00;99.90
21592;DHT22;10958;50.892;3.992;2023-04-15T02:42:46;10.00;99.90
21592;DHT22;10958;50.892;3.992;2023-04-15T02:45:12;10.00;99.90
21592;DHT22;10958;50.892;3.992;2023-04-15T02:47:38;10.00;99.90
21592;DHT22;10958;50.892;3.992;2023-04-15T02:50:11;10.00;99.90
21592;DHT22;10958;50.892;3.992;2023-04-15T02:52:38;9.90;99.90
21592;DHT22;10958;50.892;3.992;2023-04-15T02:55:04;9.80;99.90
21592;DHT22;10958;50.892;3.992;2023-04-15T02:57:30;9.80;99.90
21592;DHT22;10958;50.892;3.992;2023-04-15T02:59:56;9.60;99.90
21592;DHT22;10958;50.892;3.992;2023-04-15T03:02:23;9.50;99.90
21592;DHT22;10958;50.892;3.992;2023-04-15T03:04:49;9.50;99.90
21592;DHT22;10958;50.892;3.992;2023-04-15T03:07:16;9.40;99.90
21592;DHT22;10958;50.892;3.992;2023-04-15T03:09:42;9.40;99.90
21592;DHT22;10958;50.892;3.992;2023-04-15T03:12:08;9.40;99.90
21592;DHT22;10958;50.892;3.992;2023-04-15T03:14:35;9.30;99.90
21592;DHT22;10958;50.892;3.992;2023-04-15T03:17:01;9.50;99.90
21592;DHT22;10958;50.892;3.992;2023-04-15T03:19:27;9.50;99.90
21592;DHT22;10958;50.892;3.992;2023-04-15T03:21:53;9.50;99.90
21592;DHT22;10958;50.892;3.992;2023-04-15T03:24:19;9.60;99.90
21592;DHT22;10958;50.892;3.992;2023-04-15T03:26:45;9.60;99.90
21592;DHT22;10958;50.892;3.992;2023-04-15T03:29:10;9.70;99.90
21592;DHT22;10958;50.892;3.992;2023-04-15T03:31:36;9.60;99.90
21592;DHT22;10958;50.892;3.992;2023-04-15T03:34:02;9.60;99.90
21592;DHT22;10958;50.892;3.992;2023-04-15T03:36:33;9.60;99.90
21592;DHT22;10958;50.892;3.992;2023-04-15T03:38:59;9.50;99.90
21592;DHT22;10958;50.892;3.992;2023-04-15T03:41:26;9.60;99.90
21592;DHT22;10958;50.892;3.992;2023-04-15T03:43:52;9.70;99.90
21592;DHT22;10958;50.892;3.992;2023-04-15T03:46:18;9.80;99.90
21592;DHT22;10958;50.892;3.992;2023-04-15T03:48:44;9.90;99.90
21592;DHT22;10958;50.892;3.992;2023-04-15T03:51:09;9.90;99.90
21592;DHT22;10958;50.892;3.992;2023-04-15T03:53:36;9.90;99.90
21592;DHT22;10958;50.892;3.992;2023-04-15T03:56:01;9.90;99.90
21592;DHT22;10958;50.892;3.992;2023-04-15T03:58:27;9.70;99.90
21592;DHT22;10958;50.892;3.992;2023-04-15T04:00:52;9.70;99.90
21592;DHT22;10958;50.892;3.992;2023-04-15T04:03:19;9.80;99.90
21592;DHT22;10958;50.892;3.992;2023-04-15T04:05:45;9.80;99.90
21592;DHT22;10958;50.892;3.992;2023-04-15T04:08:11;9.80;99.90
21592;DHT22;10958;50.892;3.992;2023-04-15T04:10:38;9.90;99.90
21592;DHT22;10958;50.892;3.992;2023-04-15T04:13:04;10.00;99.90
21592;DHT22;10958;50.892;3.992;2023-04-15T04:15:30;10.10;99.90
21592;DHT22;10958;50.892;3.992;2023-04-15T04:17:56;10.20;99.90
21592;DHT22;10958;50.892;3.992;2023-04-15T04:20:22;10.20;99.90
21592;DHT22;10958;50.892;3.992;2023-04-15T04:22:47;10.30;99.90
21592;DHT22;10958;50.892;3.992;2023-04-15T04:25:13;10.40;99.90
21592;DHT22;10958;50.892;3.992;2023-04-15T04:27:41;10.20;99.90
21592;DHT22;10958;50.892;3.992;2023-04-15T04:30:07;10.20;99.90
21592;DHT22;10958;50.892;3.992;2023-04-15T04:32:35;10.10;99.90
21592;DHT22;10958;50.892;3.992;2023-04-15T04:35:01;10.10;99.90
21592;DHT22;10958;50.892;3.992;2023-04-15T04:37:26;10.00;99.90
21592;DHT22;10958;50.892;3.992;2023-04-15T04:39:52;10.10;99.90
21592;DHT22;10958;50.892;3.992;2023-04-15T04:42:18;10.10;99.90
21592;DHT22;10958;50.892;3.992;2023-04-15T04:44:43;10.10;99.90
21592;DHT22;10958;50.892;3.992;2023-04-15T04:47:09;10.00;99.90
21592;DHT22;10958;50.892;3.992;2023-04-15T04:49:35;10.00;99.90
21592;DHT22;10958;50.892;3.992;2023-04-15T04:52:01;10.00;99.90
21592;DHT22;10958;50.892;3.992;2023-04-15T04:54:27;9.90;99.90
21592;DHT22;10958;50.892;3.992;2023-04-15T04:56:56;9.80;99.90
21592;DHT22;10958;50.892;3.992;2023-04-15T04:59:22;9.70;99.90
21592;DHT22;10958;50.892;3.992;2023-04-15T05:01:48;9.70;99.90
21592;DHT22;10958;50.892;3.992;2023-04-15T05:04:14;9.60;99.90
21592;DHT22;10958;50.892;3.992;2023-04-15T05:06:39;9.60;99.90
21592;DHT22;10958;50.892;3.992;2023-04-15T05:09:05;9.50;99.90
21592;DHT22;10958;50.892;3.992;2023-04-15T05:11:31;9.60;99.90
21592;DHT22;10958;50.892;3.992;2023-04-15T05:14:01;9.60;99.90
21592;DHT22;10958;50.892;3.992;2023-04-15T05:16:27;9.40;99.90
21592;DHT22;10958;50.892;3.992;2023-04-15T05:18:55;9.50;99.90
21592;DHT22;10958;50.892;3.992;2023-04-15T05:21:21;9.50;99.90
21592;DHT22;10958;50.892;3.992;2023-04-15T05:23:48;9.50;99.90
21592;DHT22;10958;50.892;3.992;2023-04-15T05:26:16;9.60;99.90
21592;DHT22;10958;50.892;3.992;2023-04-15T05:28:44;9.60;99.90
21592;DHT22;10958;50.892;3.992;2023-04-15T05:31:10;9.60;99.90
21592;DHT22;10958;50.892;3.992;2023-04-15T05:33:36;9.60;99.90
21592;DHT22;10958;50.892;3.992;2023-04-15T05:36:01;9.60;99.90
21592;DHT22;10958;50.892;3.992;2023-04-15T05:38:27;9.70;99.90
21592;DHT22;10958;50.892;3.992;2023-04-15T05:40:53;9.60;99.90
21592;DHT22;10958;50.892;3.992;2023-04-15T05:43:18;9.60;99.90
21592;DHT22;10958;50.892;3.992;2023-04-15T05:45:44;9.60;99.90
21592;DHT22;10958;50.892;3.992;2023-04-15T05:48:10;9.70;99.90
21592;DHT22;10958;50.892;3.992;2023-04-15T05:50:36;9.70;99.90
21592;DHT22;10958;50.892;3.992;2023-04-15T05:53:02;9.70;99.90
21592;DHT22;10958;50.892;3.992;2023-04-15T05:55:27;9.70;99.90
21592;DHT22;10958;50.892;3.992;2023-04-15T05:57:53;9.70;99.90
21592;DHT22;10958;50.892;3.992;2023-04-15T06:00:18;9.70;99.90
21592;DHT22;10958;50.892;3.992;2023-04-15T06:02:45;9.80;99.90
21592;DHT22;10958;50.892;3.992;2023-04-15T06:05:10;9.90;99.90
21592;DHT22;10958;50.892;3.992;2023-04-15T06:07:37;10.10;99.90
21592;DHT22;10958;50.892;3.992;2023-04-15T06:10:04;10.10;99.90
21592;DHT22;10958;50.892;3.992;2023-04-15T06:12:30;10.20;99.90
21592;DHT22;10958;50.892;3.992;2023-04-15T06:14:56;10.60;99.90
21592;DHT22;10958;50.892;3.992;2023-04-15T06:17:22;10.90;99.90
21592;DHT22;10958;50.892;3.992;2023-04-15T06:19:48;11.20;99.90
21592;DHT22;10958;50.892;3.992;2023-04-15T06:22:16;11.10;99.90
21592;DHT22;10958;50.892;3.992;2023-04-15T06:24:41;11.00;99.90
21592;DHT22;10958;50.892;3.992;2023-04-15T06:27:09;11.00;99.90
21592;DHT22;10958;50.892;3.992;2023-04-15T06:29:37;11.00;99.90
21592;DHT22;10958;50.892;3.992;2023-04-15T06:32:04;11.10;99.90
21592;DHT22;10958;50.892;3.992;2023-04-15T06:34:30;11.20;99.90
21592;DHT22;10958;50.892;3.992;2023-04-15T06:36:58;11.60;99.90
21592;DHT22;10958;50.892;3.992;2023-04-15T06:39:24;11.80;99.90
21592;DHT22;10958;50.892;3.992;2023-04-15T06:41:50;12.10;99.90
21592;DHT22;10958;50.892;3.992;2023-04-15T06:44:16;12.40;99.90
21592;DHT22;10958;50.892;3.992;2023-04-15T06:46:43;12.30;99.90
21592;DHT22;10958;50.892;3.992;2023-04-15T06:49:09;12.70;99.90
21592;DHT22;10958;50.892;3.992;2023-04-15T06:51:35;13.10;99.90
21592;DHT22;10958;50.892;3.992;2023-04-15T06:54:03;13.40;99.90
21592;DHT22;10958;50.892;3.992;2023-04-15T06:56:31;13.20;99.90
21592;DHT22;10958;50.892;3.992;2023-04-15T06:58:57;13.10;99.90
21592;DHT22;10958;50.892;3.992;2023-04-15T07:01:23;13.00;99.90
21592;DHT22;10958;50.892;3.992;2023-04-15T07:03:50;12.70;99.90
21592;DHT22;10958;50.892;3.992;2023-04-15T07:06:16;12.50;99.90
21592;DHT22;10958;50.892;3.992;2023-04-15T07:08:44;12.40;99.90
21592;DHT22;10958;50.892;3.992;2023-04-15T07:11:10;12.60;99.90
21592;DHT22;10958;50.892;3.992;2023-04-15T07:13:36;13.10;99.90
21592;DHT22;10958;50.892;3.992;2023-04-15T07:16:02;13.70;99.90
21592;DHT22;10958;50.892;3.992;2023-04-15T07:18:28;14.60;99.90
21592;DHT22;10958;50.892;3.992;2023-04-15T07:20:57;15.30;99.90
21592;DHT22;10958;50.892;3.992;2023-04-15T07:23:23;15.60;99.90
21592;DHT22;10958;50.892;3.992;2023-04-15T07:25:49;15.90;99.90
21592;DHT22;10958;50.892;3.992;2023-04-15T07:28:15;15.90;99.90
21592;DHT22;10958;50.892;3.992;2023-04-15T07:30:41;15.80;99.90
21592;DHT22;10958;50.892;3.992;2023-04-15T07:33:07;15.50;99.90
21592;DHT22;10958;50.892;3.992;2023-04-15T07:35:33;15.10;99.90
21592;DHT22;10958;50.892;3.992;2023-04-15T07:37:59;15.10;99.90
21592;DHT22;10958;50.892;3.992;2023-04-15T07:40:24;15.20;99.90
21592;DHT22;10958;50.892;3.992;2023-04-15T07:42:50;15.00;99.90
21592;DHT22;10958;50.892;3.992;2023-04-15T07:45:19;14.80;99.90
21592;DHT22;10958;50.892;3.992;2023-04-15T07:47:45;14.40;99.90
21592;DHT22;10958;50.892;3.992;2023-04-15T07:50:11;14.20;99.90
21592;DHT22;10958;50.892;3.992;2023-04-15T07:52:36;13.70;99.90
21592;DHT22;10958;50.892;3.992;2023-04-15T07:55:06;13.80;99.90
21592;DHT22;10958;50.892;3.992;2023-04-15T07:57:33;14.10;99.90
21592;DHT22;10958;50.892;3.992;2023-04-15T08:00:00;14.40;99.90
21592;DHT22;10958;50.892;3.992;2023-04-15T08:02:25;14.30;99.90
21592;DHT22;10958;50.892;3.992;2023-04-15T08:04:51;14.40;99.90
21592;DHT22;10958;50.892;3.992;2023-04-15T08:07:18;14.30;99.90
21592;DHT22;10958;50.892;3.992;2023-04-15T08:09:44;14.40;99.90
21592;DHT22;10958;50.892;3.992;2023-04-15T08:12:10;14.70;99.90
21592;DHT22;10958;50.892;3.992;2023-04-15T08:14:38;15.00;99.90
21592;DHT22;10958;50.892;3.992;2023-04-15T08:17:04;15.10;99.90
21592;DHT22;10958;50.892;3.992;2023-04-15T08:19:30;15.00;99.90
21592;DHT22;10958;50.892;3.992;2023-04-15T08:21:56;14.80;99.90
21592;DHT22;10958;50.892;3.992;2023-04-15T08:24:22;14.90;99.90
21592;DHT22;10958;50.892;3.992;2023-04-15T08:26:48;15.20;99.90
21592;DHT22;10958;50.892;3.992;2023-04-15T08:29:16;15.40;99.90
21592;DHT22;10958;50.892;3.992;2023-04-15T08:31:42;16.10;99.90
21592;DHT22;10958;50.892;3.992;2023-04-15T08:34:08;16.60;99.90
21592;DHT22;10958;50.892;3.992;2023-04-15T08:36:34;17.10;99.90
21592;DHT22;10958;50.892;3.992;2023-04-15T08:38:59;17.50;99.90
21592;DHT22;10958;50.892;3.992;2023-04-15T08:41:37;18.30;99.90
21592;DHT22;10958;50.892;3.992;2023-04-15T08:44:05;18.50;99.90
21592;DHT22;10958;50.892;3.992;2023-04-15T08:46:31;18.20;99.90
21592;DHT22;10958;50.892;3.992;2023-04-15T08:49:03;19.00;99.90
21592;DHT22;10958;50.892;3.992;2023-04-15T08:51:28;19.50;99.90
21592;DHT22;10958;50.892;3.992;2023-04-15T08:53:54;19.60;99.90
21592;DHT22;10958;50.892;3.992;2023-04-15T08:56:24;20.00;99.90
21592;DHT22;10958;50.892;3.992;2023-04-15T08:58:50;20.10;99.90
21592;DHT22;10958;50.892;3.992;2023-04-15T09:01:16;20.00;99.90
21592;DHT22;10958;50.892;3.992;2023-04-15T09:03:43;19.70;99.90
21592;DHT22;10958;50.892;3.992;2023-04-15T09:06:09;20.10;99.90
21592;DHT22;10958;50.892;3.992;2023-04-15T09:08:35;19.40;99.90
21592;DHT22;10958;50.892;3.992;2023-04-15T09:11:01;19.80;99.90
21592;DHT22;10958;50.892;3.992;2023-04-15T09:13:27;19.40;99.90
21592;DHT22;10958;50.892;3.992;2023-04-15T09:15:55;19.30;99.90
21592;DHT22;10958;50.892;3.992;2023-04-15T09:18:30;19.20;99.90
21592;DHT22;10958;50.892;3.992;2023-04-15T09:21:10;18.70;99.90
21592;DHT22;10958;50.892;3.992;2023-04-15T09:23:38;18.50;99.90
21592;DHT22;10958;50.892;3.992;2023-04-15T09:26:05;18.10;99.90
21592;DHT22;10958;50.892;3.992;2023-04-15T09:28:40;18.10;99.90
21592;DHT22;10958;50.892;3.992;2023-04-15T09:31:06;18.30;99.90
21592;DHT22;10958;50.892;3.992;2023-04-15T09:33:32;18.20;99.90
21592;DHT22;10958;50.892;3.992;2023-04-15T09:36:04;18.10;99.90
21592;DHT22;10958;50.892;3.992;2023-04-15T09:38:31;18.10;99.90
21592;DHT22;10958;50.892;3.992;2023-04-15T09:40:57;18.20;99.90
21592;DHT22;10958;50.892;3.992;2023-04-15T09:43:39;18.50;99.90
21592;DHT22;10958;50.892;3.992;2023-04-15T09:46:05;18.30;99.90
21592;DHT22;10958;50.892;3.992;2023-04-15T09:48:31;18.20;99.90
21592;DHT22;10958;50.892;3.992;2023-04-15T09:50:58;18.50;99.90
21592;DHT22;10958;50.892;3.992;2023-04-15T09:53:24;19.00;99.90
21592;DHT22;10958;50.892;3.992;2023-04-15T09:55:53;18.90;99.90
21592;DHT22;10958;50.892;3.992;2023-04-15T09:58:23;18.80;99.90
21592;DHT22;10958;50.892;3.992;2023-04-15T10:00:51;19.40;99.90
21592;DHT22;10958;50.892;3.992;2023-04-15T10:03:26;19.50;99.90
21592;DHT22;10958;50.892;3.992;2023-04-15T10:05:54;20.40;99.90
21592;DHT22;10958;50.892;3.992;2023-04-15T10:08:22;20.70;99.90
21592;DHT22;10958;50.892;3.992;2023-04-15T10:10:50;20.80;99.90
21592;DHT22;10958;50.892;3.992;2023-04-15T10:13:23;20.80;99.90
21592;DHT22;10958;50.892;3.992;2023-04-15T10:15:57;20.50;99.90
21592;DHT22;10958;50.892;3.992;2023-04-15T10:18:25;20.20;99.90
21592;DHT22;10958;50.892;3.992;2023-04-15T10:20:52;19.70;99.90
21592;DHT22;10958;50.892;3.992;2023-04-15T10:23:19;19.30;99.90
21592;DHT22;10958;50.892;3.992;2023-04-15T10:25:45;19.40;99.90
21592;DHT22;10958;50.892;3.992;2023-04-15T10:28:11;18.70;99.90
21592;DHT22;10958;50.892;3.992;2023-04-15T10:30:41;18.20;99.90
21592;DHT22;10958;50.892;3.992;2023-04-15T10:33:08;17.90;99.90
21592;DHT22;10958;50.892;3.992;2023-04-15T10:35:34;17.80;99.90
21592;DHT22;10958;50.892;3.992;2023-04-15T10:38:00;17.40;99.90
21592;DHT22;10958;50.892;3.992;2023-04-15T10:40:30;17.00;99.90
21592;DHT22;10958;50.892;3.992;2023-04-15T10:43:02;16.80;99.90
21592;DHT22;10958;50.892;3.992;2023-04-15T10:45:35;17.20;99.90
21592;DHT22;10958;50.892;3.992;2023-04-15T10:48:03;17.60;99.90
21592;DHT22;10958;50.892;3.992;2023-04-15T10:50:31;17.60;99.90
21592;DHT22;10958;50.892;3.992;2023-04-15T10:52:57;17.50;99.90
21592;DHT22;10958;50.892;3.992;2023-04-15T10:55:29;17.50;99.90
21592;DHT22;10958;50.892;3.992;2023-04-15T10:58:00;17.20;99.90
21592;DHT22;10958;50.892;3.992;2023-04-15T11:00:30;16.80;99.90
21592;DHT22;10958;50.892;3.992;2023-04-15T11:02:58;16.80;99.90
21592;DHT22;10958;50.892;3.992;2023-04-15T11:05:51;16.90;99.90
21592;DHT22;10958;50.892;3.992;2023-04-15T11:08:18;16.90;99.90
21592;DHT22;10958;50.892;3.992;2023-04-15T11:13:20;17.00;99.90
21592;DHT22;10958;50.892;3.992;2023-04-15T11:15:55;17.00;99.90
21592;DHT22;10958;50.892;3.992;2023-04-15T11:18:27;17.00;99.90
21592;DHT22;10958;50.892;3.992;2023-04-15T11:20:58;16.90;99.90
21592;DHT22;10958;50.892;3.992;2023-04-15T11:23:36;16.80;99.90
21592;DHT22;10958;50.892;3.992;2023-04-15T11:26:04;16.70;99.90
21592;DHT22;10958;50.892;3.992;2023-04-15T11:28:34;16.70;99.90
21592;DHT22;10958;50.892;3.992;2023-04-15T11:31:20;16.80;99.90
21592;DHT22;10958;50.892;3.992;2023-04-15T11:33:56;17.00;99.90
21592;DHT22;10958;50.892;3.992;2023-04-15T11:36:24;17.30;99.90
21592;DHT22;10958;50.892;3.992;2023-04-15T11:38:53;17.50;99.90
21592;DHT22;10958;50.892;3.992;2023-04-15T11:41:22;17.40;99.90
21592;DHT22;10958;50.892;3.992;2023-04-15T11:43:51;17.40;99.90
21592;DHT22;10958;50.892;3.992;2023-04-15T11:46:17;17.10;99.90
21592;DHT22;10958;50.892;3.992;2023-04-15T11:48:44;17.10;99.90
21592;DHT22;10958;50.892;3.992;2023-04-15T11:51:12;17.20;99.90
21592;DHT22;10958;50.892;3.992;2023-04-15T11:53:42;17.30;99.90
21592;DHT22;10958;50.892;3.992;2023-04-15T11:56:09;17.20;99.90
21592;DHT22;10958;50.892;3.992;2023-04-15T11:58:38;17.30;99.90
21592;DHT22;10958;50.892;3.992;2023-04-15T12:01:07;17.10;99.90
21592;DHT22;10958;50.892;3.992;2023-04-15T12:08:08;16.80;99.90
21592;DHT22;10958;50.892;3.992;2023-04-15T12:10:35;16.80;99.90
21592;DHT22;10958;50.892;3.992;2023-04-15T12:13:05;16.70;99.90
21592;DHT22;10958;50.892;3.992;2023-04-15T12:15:36;16.70;99.90
21592;DHT22;10958;50.892;3.992;2023-04-15T12:18:02;16.80;99.90
21592;DHT22;10958;50.892;3.992;2023-04-15T12:20:29;17.00;99.90
21592;DHT22;10958;50.892;3.992;2023-04-15T12:23:06;17.10;99.90
21592;DHT22;10958;50.892;3.992;2023-04-15T12:25:33;17.50;99.90
21592;DHT22;10958;50.892;3.992;2023-04-15T12:28:09;17.60;99.90
21592;DHT22;10958;50.892;3.992;2023-04-15T12:30:35;17.40;99.90
21592;DHT22;10958;50.892;3.992;2023-04-15T12:33:02;17.20;99.90
21592;DHT22;10958;50.892;3.992;2023-04-15T12:35:30;17.10;99.90
21592;DHT22;10958;50.892;3.992;2023-04-15T12:37:56;17.00;99.90
21592;DHT22;10958;50.892;3.992;2023-04-15T12:40:21;17.10;99.90
21592;DHT22;10958;50.892;3.992;2023-04-15T12:42:47;17.20;99.90
21592;DHT22;10958;50.892;3.992;2023-04-15T12:45:13;17.00;99.90
21592;DHT22;10958;50.892;3.992;2023-04-15T12:47:41;17.20;99.90
21592;DHT22;10958;50.892;3.992;2023-04-15T12:50:07;16.90;99.90
21592;DHT22;10958;50.892;3.992;2023-04-15T12:52:33;16.80;99.90
21592;DHT22;10958;50.892;3.992;2023-04-15T12:54:59;16.80;99.90
21592;DHT22;10958;50.892;3.992;2023-04-15T12:57:25;16.90;99.90
21592;DHT22;10958;50.892;3.992;2023-04-15T12:59:53;16.90;99.90
21592;DHT22;10958;50.892;3.992;2023-04-15T13:02:21;16.90;99.90
21592;DHT22;10958;50.892;3.992;2023-04-15T13:04:49;17.00;99.90
21592;DHT22;10958;50.892;3.992;2023-04-15T13:07:15;16.80;99.90
21592;DHT22;10958;50.892;3.992;2023-04-15T13:09:41;16.80;99.90
21592;DHT22;10958;50.892;3.992;2023-04-15T13:12:06;16.80;99.90
21592;DHT22;10958;50.892;3.992;2023-04-15T13:14:32;16.80;99.90
21592;DHT22;10958;50.892;3.992;2023-04-15T13:16:58;16.90;99.90
21592;DHT22;10958;50.892;3.992;2023-04-15T13:19:23;16.80;99.90
21592;DHT22;10958;50.892;3.992;2023-04-15T13:21:49;16.80;99.90
21592;DHT22;10958;50.892;3.992;2023-04-15T13:24:15;16.70;99.90
21592;DHT22;10958;50.892;3.992;2023-04-15T13:26:41;16.70;99.90
21592;DHT22;10958;50.892;3.992;2023-04-15T13:29:07;16.90;99.90
21592;DHT22;10958;50.892;3.992;2023-04-15T13:31:32;17.00;99.90
21592;DHT22;10958;50.892;3.992;2023-04-15T13:33:58;17.00;99.90
21592;DHT22;10958;50.892;3.992;2023-04-15T13:36:26;16.90;99.90
21592;DHT22;10958;50.892;3.992;2023-04-15T13:38:54;16.80;99.90
21592;DHT22;10958;50.892;3.992;2023-04-15T13:41:20;16.90;99.90
21592;DHT22;10958;50.892;3.992;2023-04-15T13:43:48;16.80;99.90
21592;DHT22;10958;50.892;3.992;2023-04-15T13:46:17;16.60;99.90
21592;DHT22;10958;50.892;3.992;2023-04-15T13:48:42;16.60;99.90
21592;DHT22;10958;50.892;3.992;2023-04-15T13:51:08;16.60;99.90
21592;DHT22;10958;50.892;3.992;2023-04-15T13:53:34;16.70;99.90
21592;DHT22;10958;50.892;3.992;2023-04-15T13:56:00;16.80;99.90
21592;DHT22;10958;50.892;3.992;2023-04-15T13:58:26;16.80;99.90
21592;DHT22;10958;50.892;3.992;2023-04-15T14:00:51;16.90;99.90
21592;DHT22;10958;50.892;3.992;2023-04-15T14:03:17;16.70;99.90
21592;DHT22;10958;50.892;3.992;2023-04-15T14:05:44;16.70;99.90
21592;DHT22;10958;50.892;3.992;2023-04-15T14:08:12;16.80;99.90
21592;DHT22;10958;50.892;3.992;2023-04-15T14:10:38;17.00;99.90
21592;DHT22;10958;50.892;3.992;2023-04-15T14:13:04;16.80;99.90
21592;DHT22;10958;50.892;3.992;2023-04-15T14:15:31;16.70;99.90
21592;DHT22;10958;50.892;3.992;2023-04-15T14:17:59;16.70;99.90
21592;DHT22;10958;50.892;3.992;2023-04-15T14:20:24;16.70;99.90
21592;DHT22;10958;50.892;3.992;2023-04-15T14:22:50;16.70;99.90
21592;DHT22;10958;50.892;3.992;2023-04-15T14:25:16;16.50;99.90
21592;DHT22;10958;50.892;3.992;2023-04-15T14:27:42;16.60;99.90
21592;DHT22;10958;50.892;3.992;2023-04-15T14:30:08;16.70;99.90
21592;DHT22;10958;50.892;3.992;2023-04-15T14:32:34;16.70;99.90
21592;DHT22;10958;50.892;3.992;2023-04-15T14:35:02;16.70;99.90
21592;DHT22;10958;50.892;3.992;2023-04-15T14:37:28;16.90;99.90
21592;DHT22;10958;50.892;3.992;2023-04-15T14:39:57;16.80;99.90
21592;DHT22;10958;50.892;3.992;2023-04-15T14:42:23;16.90;99.90
21592;DHT22;10958;50.892;3.992;2023-04-15T14:44:48;17.10;99.90
21592;DHT22;10958;50.892;3.992;2023-04-15T14:47:14;17.30;99.90
21592;DHT22;10958;50.892;3.992;2023-04-15T14:49:40;17.00;99.90
21592;DHT22;10958;50.892;3.992;2023-04-15T14:52:09;16.90;99.90
21592;DHT22;10958;50.892;3.992;2023-04-15T14:54:34;16.80;99.90
21592;DHT22;10958;50.892;3.992;2023-04-15T14:57:03;16.70;99.90
21592;DHT22;10958;50.892;3.992;2023-04-15T14:59:29;16.60;99.90
21592;DHT22;10958;50.892;3.992;2023-04-15T15:01:55;16.70;99.90
21592;DHT22;10958;50.892;3.992;2023-04-15T15:04:23;16.50;99.90
21592;DHT22;10958;50.892;3.992;2023-04-15T15:06:49;16.40;99.90
21592;DHT22;10958;50.892;3.992;2023-04-15T15:09:15;16.40;99.90
21592;DHT22;10958;50.892;3.992;2023-04-15T15:11:41;16.40;99.90
21592;DHT22;10958;50.892;3.992;2023-04-15T15:14:06;16.50;99.90
21592;DHT22;10958;50.892;3.992;2023-04-15T15:16:34;16.30;99.90
21592;DHT22;10958;50.892;3.992;2023-04-15T15:19:01;16.10;99.90
21592;DHT22;10958;50.892;3.992;2023-04-15T15:21:29;16.20;99.90
21592;DHT22;10958;50.892;3.992;2023-04-15T15:23:55;16.10;99.90
21592;DHT22;10958;50.892;3.992;2023-04-15T15:26:21;15.90;99.90
21592;DHT22;10958;50.892;3.992;2023-04-15T15:28:47;15.90;99.90
21592;DHT22;10958;50.892;3.992;2023-04-15T15:31:15;15.90;99.90
21592;DHT22;10958;50.892;3.992;2023-04-15T15:33:40;15.80;99.90
21592;DHT22;10958;50.892;3.992;2023-04-15T15:36:06;15.40;99.90
21592;DHT22;10958;50.892;3.992;2023-04-15T15:38:32;15.20;99.90